Time;durP1;ratioP1;P1;durP2;ratioP2;P2;SDS_P1;SDS_P2;PMS_P1;PMS_P2;Temp;Humidity;BMP_temperature;BMP_pressure;BME280_temperature;BME280_humidity;BME280_pressure;Samples;Min_cycle;Max_cycle;Signal;HPM_P1;HPM_P2
2024/03/24 09:51:24;;;;;;;8.15;7.35;;;8.40;99.90;;;;;;5068320;28;20438;-79
2024/03/24 09:53:52;;;;;;;12.13;6.50;;;10.60;99.90;;;;;;5042228;28;20053;-77
2024/03/24 09:56:22;;;;;;;9.10;6.05;;;11.80;98.90;;;;;;5055732;28;20056;-76
2024/03/24 09:58:48;;;;;;;9.35;5.00;;;13.00;95.80;;;;;;5042278;28;20079;-78
2024/03/24 10:01:15;;;;;;;8.55;4.70;;;14.10;92.50;;;;;;5058845;28;20049;-78
2024/03/24 10:03:42;;;;;;;9.50;5.07;;;15.10;88.30;;;;;;5046511;28;20102;-78
2024/03/24 10:06:10;;;;;;;7.78;3.95;;;16.10;82.20;;;;;;5064679;28;20048;-78
2024/03/24 10:08:36;;;;;;;6.25;3.72;;;17.00;77.30;;;;;;5046259;28;20068;-78
2024/03/24 10:11:32;;;;;;;7.90;4.47;;;17.70;73.40;;;;;;5041185;28;20052;-77
2024/03/24 10:14:01;;;;;;;5.72;3.63;;;18.40;70.20;;;;;;5084891;28;20830;-79
2024/03/24 10:16:27;;;;;;;10.02;3.22;;;19.00;67.50;;;;;;5048273;28;20053;-78
2024/03/24 10:18:54;;;;;;;8.25;3.63;;;19.50;65.00;;;;;;5034084;28;20053;-79
2024/03/24 10:21:20;;;;;;;8.90;3.58;;;20.00;63.00;;;;;;5045760;28;20060;-79
2024/03/24 10:23:47;;;;;;;8.02;3.22;;;20.40;61.70;;;;;;5041995;28;20056;-80
2024/03/24 10:26:22;;;;;;;4.80;3.33;;;20.70;59.60;;;;;;5039277;28;20719;-77
2024/03/24 10:28:49;;;;;;;7.22;3.28;;;21.00;58.50;;;;;;5076297;28;20044;-77
2024/03/24 10:31:16;;;;;;;3.50;2.92;;;21.30;58.10;;;;;;5058995;28;20045;-77
2024/03/24 10:33:45;;;;;;;5.75;3.00;;;21.50;57.70;;;;;;5041830;28;20061;-77
2024/03/24 10:36:12;;;;;;;7.80;3.13;;;21.80;56.70;;;;;;5033135;28;20132;-79
2024/03/24 10:38:41;;;;;;;10.80;3.65;;;22.00;56.20;;;;;;5039696;28;20060;-79
2024/03/24 10:41:08;;;;;;;12.10;3.15;;;22.10;55.60;;;;;;5054893;28;20049;-87
2024/03/24 10:43:34;;;;;;;13.32;3.00;;;22.20;55.20;;;;;;5064922;28;20045;-86
2024/03/24 10:46:01;;;;;;;10.60;3.10;;;22.40;55.80;;;;;;5042658;28;20053;-84
2024/03/24 10:48:33;;;;;;;11.77;2.75;;;22.50;55.00;;;;;;5060737;28;20056;-82
2024/03/24 10:51:01;;;;;;;5.82;2.40;;;22.70;54.90;;;;;;5035856;28;20052;-81
2024/03/24 10:53:34;;;;;;;9.23;2.80;;;22.70;54.00;;;;;;5038792;28;20064;-81
2024/03/24 10:56:01;;;;;;;15.13;3.35;;;22.80;54.20;;;;;;5041771;28;20060;-80
2024/03/24 10:58:30;;;;;;;10.90;2.45;;;22.80;54.90;;;;;;5047494;28;20061;-86
2024/03/24 11:00:57;;;;;;;14.90;3.42;;;22.90;54.10;;;;;;5039059;28;20050;-87
2024/03/24 11:03:27;;;;;;;56.17;5.80;;;22.90;53.80;;;;;;5027328;28;20061;-88
2024/03/24 11:05:53;;;;;;;9.55;4.18;;;23.00;54.20;;;;;;5044074;28;20053;-87
2024/03/24 11:08:20;;;;;;;19.98;5.13;;;23.00;54.10;;;;;;5029822;28;20495;-86
2024/03/24 11:10:52;;;;;;;28.17;8.00;;;23.00;51.70;;;;;;5025645;28;20079;-83
2024/03/24 11:13:21;;;;;;;31.75;13.32;;;22.80;47.00;;;;;;5029636;28;20054;-84
2024/03/24 11:15:47;;;;;;;33.15;11.38;;;22.80;54.00;;;;;;5041715;28;20057;-84
2024/03/24 11:18:28;;;;;;;31.52;10.30;;;22.90;54.60;;;;;;5043156;28;20064;-84
2024/03/24 11:20:55;;;;;;;31.55;10.35;;;23.00;54.60;;;;;;5056766;28;20045;-84
2024/03/24 11:23:37;;;;;;;23.17;10.25;;;23.00;55.00;;;;;;5026338;28;20049;-84
2024/03/24 11:26:06;;;;;;;29.30;10.43;;;23.10;56.00;;;;;;5046033;28;20049;-83
2024/03/24 11:28:46;;;;;;;24.55;9.57;;;23.20;56.70;;;;;;5029672;28;20092;-84
2024/03/24 11:31:21;;;;;;;21.35;9.93;;;23.30;57.20;;;;;;5055254;28;20100;-83
2024/03/24 11:34:05;;;;;;;23.25;8.70;;;23.40;57.30;;;;;;5031038;28;20053;-78
2024/03/24 11:36:34;;;;;;;27.23;8.35;;;23.50;56.90;;;;;;5034306;28;20408;-78
2024/03/24 11:39:02;;;;;;;20.13;6.68;;;23.50;57.30;;;;;;5052421;28;20408;-78
2024/03/24 11:41:28;;;;;;;16.25;6.85;;;23.60;56.40;;;;;;5023229;28;20747;-79
2024/03/24 11:43:57;;;;;;;46.78;16.67;;;23.60;53.90;;;;;;5039971;28;20049;-81
2024/03/24 11:46:28;;;;;;;57.78;19.42;;;23.70;54.00;;;;;;5022494;28;20064;-87
2024/03/24 11:48:59;;;;;;;61.25;19.70;;;23.70;53.50;;;;;;5017758;28;20050;-86
2024/03/24 11:51:26;;;;;;;92.28;30.85;;;23.70;52.90;;;;;;5024574;28;20076;-86
2024/03/24 11:53:56;;;;;;;65.63;20.58;;;23.70;53.30;;;;;;5034892;28;20499;-82
2024/03/24 11:56:26;;;;;;;53.35;21.13;;;23.60;52.80;;;;;;5023428;28;20075;-82
2024/03/24 11:58:56;;;;;;;48.50;17.73;;;23.60;52.50;;;;;;5043724;28;20053;-82
2024/03/24 12:01:23;;;;;;;53.97;20.17;;;23.60;52.50;;;;;;5017463;28;20053;-87
2024/03/24 12:03:50;;;;;;;71.63;25.20;;;23.50;52.50;;;;;;5028134;28;20056;-87
2024/03/24 12:06:20;;;;;;;68.55;22.75;;;23.60;53.50;;;;;;5021030;28;20053;-81
2024/03/24 12:08:50;;;;;;;58.42;22.42;;;23.50;53.50;;;;;;5026897;28;20057;-82
2024/03/24 12:11:16;;;;;;;63.45;23.23;;;23.60;53.80;;;;;;5018932;28;20042;-82
2024/03/24 12:13:43;;;;;;;53.70;20.17;;;23.60;53.40;;;;;;5029317;28;20067;-82
2024/03/24 12:16:13;;;;;;;54.05;21.92;;;23.60;53.10;;;;;;5030244;28;20045;-81
2024/03/24 12:18:41;;;;;;;58.58;21.65;;;23.60;53.00;;;;;;5038200;28;20056;-82
2024/03/24 12:21:07;;;;;;;52.55;19.42;;;23.60;53.20;;;;;;5024818;28;20049;-82
2024/03/24 12:23:35;;;;;;;54.55;18.15;;;23.60;53.00;;;;;;5059030;28;20057;-82
2024/03/24 12:26:02;;;;;;;45.58;18.20;;;23.60;52.90;;;;;;5024330;28;20064;-82
2024/03/24 12:28:28;;;;;;;48.80;18.27;;;23.60;52.90;;;;;;5028082;28;20053;-82
2024/03/24 12:30:55;;;;;;;50.25;18.30;;;23.60;52.80;;;;;;5026311;28;20127;-82
2024/03/24 12:33:23;;;;;;;44.35;17.88;;;23.60;52.70;;;;;;5023942;28;20176;-81
2024/03/24 12:35:50;;;;;;;41.72;16.48;;;23.70;52.80;;;;;;5023275;28;20099;-80
2024/03/24 12:38:19;;;;;;;41.83;17.13;;;23.70;52.80;;;;;;5031922;28;20050;-80
2024/03/24 12:40:56;;;;;;;42.80;16.67;;;23.70;52.10;;;;;;5033137;28;20491;-80
2024/03/24 12:43:29;;;;;;;43.30;15.82;;;23.70;52.20;;;;;;5049208;28;20060;-80
2024/03/24 12:45:55;;;;;;;19.95;6.88;;;23.70;52.00;;;;;;5029871;28;20077;-80
2024/03/24 12:48:26;;;;;;;11.07;3.55;;;23.60;46.30;;;;;;5017375;28;20057;-80
2024/03/24 12:50:52;;;;;;;13.20;3.03;;;23.50;42.80;;;;;;5018780;28;20451;-80
2024/03/24 12:53:35;;;;;;;12.23;3.63;;;23.40;40.90;;;;;;5019808;28;20411;-80
2024/03/24 12:56:04;;;;;;;28.88;7.07;;;23.30;42.60;;;;;;5036619;28;20058;-80
2024/03/24 12:58:37;;;;;;;22.95;9.07;;;23.20;45.40;;;;;;5038981;28;20075;-79
2024/03/24 13:01:07;;;;;;;29.05;7.97;;;23.20;48.10;;;;;;5023379;28;20060;-79
2024/03/24 13:03:40;;;;;;;24.75;9.25;;;23.20;48.80;;;;;;5025242;28;20057;-79
2024/03/24 13:06:17;;;;;;;28.00;8.75;;;23.20;49.40;;;;;;5024329;28;20061;-79
2024/03/24 13:08:45;;;;;;;23.55;8.43;;;23.20;49.80;;;;;;5038594;28;20435;-79
2024/03/24 13:11:11;;;;;;;24.50;8.73;;;23.20;50.00;;;;;;5021227;28;20054;-79
2024/03/24 13:13:40;;;;;;;18.30;8.18;;;23.20;50.10;;;;;;5020035;28;20057;-79
2024/03/24 13:16:07;;;;;;;28.38;9.45;;;23.20;50.20;;;;;;5034371;28;20053;-77
2024/03/24 13:18:45;;;;;;;20.50;7.10;;;23.30;50.40;;;;;;5017283;28;20060;-76
2024/03/24 13:21:18;;;;;;;21.42;6.95;;;23.30;50.60;;;;;;5035330;28;20064;-78
2024/03/24 13:23:48;;;;;;;23.50;7.57;;;23.40;50.40;;;;;;5032084;28;20061;-78
2024/03/24 13:26:19;;;;;;;23.25;7.03;;;23.50;50.30;;;;;;5016639;28;20053;-80
2024/03/24 13:28:45;;;;;;;28.42;6.75;;;23.50;50.10;;;;;;5021611;28;20064;-79
2024/03/24 13:31:11;;;;;;;18.23;6.97;;;23.50;50.10;;;;;;5025691;28;20046;-79
2024/03/24 13:33:37;;;;;;;22.48;6.80;;;23.50;49.90;;;;;;5025613;28;20049;-80
2024/03/24 13:36:09;;;;;;;24.48;5.10;;;23.50;50.20;;;;;;5042953;28;20053;-78
2024/03/24 13:38:53;;;;;;;19.10;6.55;;;23.50;50.30;;;;;;5038451;28;20053;-81
2024/03/24 13:41:34;;;;;;;12.70;5.45;;;23.50;50.20;;;;;;5040062;28;20419;-80
2024/03/24 13:44:06;;;;;;;11.07;5.10;;;23.40;50.20;;;;;;5023305;28;20068;-80
2024/03/24 13:46:33;;;;;;;20.38;5.72;;;23.40;50.30;;;;;;5014182;28;20061;-83
2024/03/24 13:49:01;;;;;;;14.18;6.25;;;23.40;50.40;;;;;;5022457;28;20053;-83
2024/03/24 13:51:33;;;;;;;14.57;5.20;;;23.30;50.50;;;;;;5038173;28;20488;-83
2024/03/24 13:54:00;;;;;;;13.23;4.40;;;23.40;50.40;;;;;;5044303;28;20104;-80
2024/03/24 13:56:26;;;;;;;15.30;5.00;;;23.30;50.60;;;;;;5025998;28;20049;-81
2024/03/24 13:58:52;;;;;;;14.80;4.75;;;23.30;50.50;;;;;;5041508;28;20060;-83
2024/03/24 14:01:20;;;;;;;16.15;4.88;;;23.30;50.50;;;;;;5038596;28;20084;-83
2024/03/24 14:03:51;;;;;;;12.57;4.50;;;23.30;50.70;;;;;;5029832;28;20057;-83
2024/03/24 14:06:21;;;;;;;14.30;4.70;;;23.30;51.00;;;;;;5021524;28;20053;-83
2024/03/24 14:08:47;;;;;;;13.68;4.25;;;23.30;51.10;;;;;;5023005;28;20056;-84
2024/03/24 14:11:13;;;;;;;14.68;3.67;;;23.30;50.80;;;;;;5024866;28;20053;-83
2024/03/24 14:14:07;;;;;;;9.00;3.42;;;23.30;50.50;;;;;;5038453;28;20041;-82
2024/03/24 14:16:57;;;;;;;16.30;3.90;;;23.30;50.30;;;;;;5031909;28;20072;-82
2024/03/24 14:19:45;;;;;;;11.48;3.60;;;23.20;49.20;;;;;;5012868;28;20317;-82
2024/03/24 14:22:30;;;;;;;11.70;3.45;;;23.10;49.40;;;;;;5056960;28;20061;-82
2024/03/24 14:25:17;;;;;;;16.95;3.47;;;23.20;49.70;;;;;;5015799;28;20337;-82
2024/03/24 14:27:42;;;;;;;11.73;3.58;;;23.10;49.50;;;;;;5019029;28;20045;-82
2024/03/24 14:30:11;;;;;;;12.10;3.35;;;23.10;49.60;;;;;;5024430;28;20060;-82
2024/03/24 14:32:37;;;;;;;8.40;2.65;;;23.10;49.60;;;;;;5018593;28;20064;-82
2024/03/24 14:35:06;;;;;;;9.63;3.00;;;23.10;49.40;;;;;;5020954;28;20109;-82
2024/03/24 14:37:50;;;;;;;9.63;3.58;;;23.00;49.00;;;;;;5049643;28;20053;-82
2024/03/24 14:40:25;;;;;;;12.95;3.25;;;23.10;50.30;;;;;;5012153;28;20049;-83
2024/03/24 14:42:54;;;;;;;11.13;3.78;;;23.10;50.40;;;;;;5059946;28;20045;-82
2024/03/24 14:45:50;;;;;;;12.20;3.08;;;23.20;50.50;;;;;;5016893;28;20046;-83
2024/03/24 14:48:32;;;;;;;14.68;3.53;;;23.20;50.40;;;;;;5013215;28;20053;-82
2024/03/24 14:50:58;;;;;;;12.93;3.00;;;23.20;50.60;;;;;;5022071;28;20054;-82
2024/03/24 14:53:24;;;;;;;7.47;2.80;;;23.20;50.40;;;;;;5027347;28;20076;-82
2024/03/24 14:55:50;;;;;;;10.43;2.72;;;23.20;50.30;;;;;;5025892;28;20133;-82
2024/03/24 14:58:18;;;;;;;10.15;2.80;;;23.30;50.40;;;;;;5042178;28;20053;-82
2024/03/24 15:00:50;;;;;;;11.65;3.10;;;23.30;50.40;;;;;;5047151;28;20503;-82
2024/03/24 15:03:16;;;;;;;15.52;3.17;;;23.30;50.50;;;;;;5023613;28;20046;-82
2024/03/24 15:05:42;;;;;;;9.45;2.88;;;23.30;50.50;;;;;;5045459;28;20045;-83
2024/03/24 15:08:12;;;;;;;8.60;2.60;;;23.30;50.70;;;;;;5026811;28;20049;-82
2024/03/24 15:10:38;;;;;;;8.50;2.88;;;23.30;50.70;;;;;;5044292;28;20044;-82
2024/03/24 15:13:05;;;;;;;15.82;2.80;;;23.40;50.70;;;;;;5032130;28;20053;-83
2024/03/24 15:15:31;;;;;;;11.75;3.42;;;23.40;50.80;;;;;;5049138;28;20044;-82
2024/03/24 15:17:58;;;;;;;11.00;2.60;;;23.40;50.90;;;;;;5037750;28;20048;-80
2024/03/24 15:20:26;;;;;;;10.88;2.95;;;23.40;50.80;;;;;;5043652;28;20049;-81
2024/03/24 15:22:53;;;;;;;12.77;2.42;;;23.40;51.00;;;;;;5040441;28;20491;-86
2024/03/24 15:25:19;;;;;;;15.32;2.90;;;23.40;51.10;;;;;;5045315;28;20167;-83
2024/03/24 15:27:46;;;;;;;18.55;3.35;;;23.30;51.10;;;;;;5022817;28;20067;-80
2024/03/24 15:30:12;;;;;;;13.95;3.03;;;23.30;51.20;;;;;;5039127;28;20049;-81
2024/03/24 15:32:39;;;;;;;9.73;2.90;;;23.30;51.00;;;;;;5027715;28;20064;-81
2024/03/24 15:35:09;;;;;;;12.55;2.70;;;23.30;51.10;;;;;;5023830;28;20050;-81
2024/03/24 15:37:39;;;;;;;15.23;3.05;;;23.30;51.40;;;;;;5025333;28;20172;-79
2024/03/24 15:40:06;;;;;;;9.50;2.42;;;23.30;51.50;;;;;;5023427;28;20060;-81
2024/03/24 15:42:33;;;;;;;13.45;2.90;;;23.30;51.10;;;;;;5040039;28;20057;-81
2024/03/24 15:44:59;;;;;;;11.15;2.70;;;23.30;51.90;;;;;;5045757;28;20468;-81
2024/03/24 15:47:25;;;;;;;10.85;2.90;;;23.30;52.00;;;;;;5022107;28;20056;-80
2024/03/24 15:49:52;;;;;;;11.85;2.83;;;23.30;52.10;;;;;;5035188;28;20519;-79
2024/03/24 15:52:18;;;;;;;15.90;2.60;;;23.30;52.40;;;;;;5036003;28;20056;-79
2024/03/24 15:54:44;;;;;;;12.90;3.08;;;23.30;52.50;;;;;;5033451;28;20048;-80
2024/03/24 15:57:21;;;;;;;15.00;2.88;;;23.30;52.80;;;;;;5050041;28;20499;-79
2024/03/24 15:59:54;;;;;;;19.55;3.50;;;23.30;52.70;;;;;;5043951;28;20053;-79
2024/03/24 16:02:29;;;;;;;9.63;2.17;;;23.30;52.70;;;;;;5015235;28;20116;-80
2024/03/24 16:04:58;;;;;;;9.73;2.53;;;23.40;52.70;;;;;;5023906;28;20554;-79
2024/03/24 16:07:33;;;;;;;9.77;2.40;;;23.30;52.50;;;;;;5024280;28;20061;-79
2024/03/24 16:10:26;;;;;;;6.63;2.65;;;23.30;52.60;;;;;;5074895;28;20058;-79
2024/03/24 16:13:01;;;;;;;8.25;2.22;;;23.30;52.80;;;;;;5041667;28;20049;-78
2024/03/24 16:15:32;;;;;;;18.60;2.97;;;23.30;52.80;;;;;;5044349;28;20052;-79
2024/03/24 16:17:59;;;;;;;9.43;2.25;;;23.30;52.80;;;;;;5044431;28;20888;-79
2024/03/24 16:20:25;;;;;;;9.93;2.55;;;23.30;52.60;;;;;;5021859;28;20044;-79
2024/03/24 16:22:52;;;;;;;9.60;2.63;;;23.30;52.60;;;;;;5018571;28;20053;-80
2024/03/24 16:25:19;;;;;;;9.75;2.45;;;23.30;52.20;;;;;;5022358;28;20056;-81
2024/03/24 16:27:45;;;;;;;4.90;2.05;;;23.30;51.90;;;;;;5051771;28;20060;-80
2024/03/24 16:30:12;;;;;;;9.40;2.47;;;23.30;52.30;;;;;;5030504;28;20423;-80
2024/03/24 16:32:38;;;;;;;6.32;2.00;;;23.30;52.60;;;;;;5019680;28;20060;-81
2024/03/24 16:35:05;;;;;;;6.70;2.20;;;23.30;52.60;;;;;;5040146;28;20054;-81
2024/03/24 16:37:31;;;;;;;19.33;2.30;;;23.20;52.40;;;;;;5020639;28;20084;-80
2024/03/24 16:39:57;;;;;;;6.30;2.42;;;23.30;52.80;;;;;;5019528;28;20057;-80
2024/03/24 16:42:26;;;;;;;9.32;2.40;;;23.30;52.70;;;;;;5039973;28;20061;-80
2024/03/24 16:44:58;;;;;;;5.00;2.00;;;23.30;52.30;;;;;;5019619;28;20064;-78
2024/03/24 16:47:25;;;;;;;12.27;2.30;;;23.30;52.40;;;;;;5025326;28;20056;-82
2024/03/24 16:49:52;;;;;;;6.57;2.45;;;23.30;52.30;;;;;;5019573;28;20053;-82
2024/03/24 16:52:18;;;;;;;13.38;2.75;;;23.20;52.20;;;;;;5026303;28;20053;-81
2024/03/24 16:54:44;;;;;;;10.77;2.47;;;23.20;52.40;;;;;;5039075;28;20053;-82
2024/03/24 16:57:12;;;;;;;17.10;2.60;;;23.20;52.50;;;;;;5029183;28;20075;-82
2024/03/24 16:59:38;;;;;;;9.38;2.50;;;23.20;52.70;;;;;;5022909;28;20769;-82
2024/03/24 17:02:04;;;;;;;10.77;2.58;;;23.20;52.60;;;;;;5026519;28;20141;-82
2024/03/24 17:04:32;;;;;;;12.52;2.45;;;23.20;52.40;;;;;;5027154;28;20060;-82
2024/03/24 17:06:58;;;;;;;8.57;2.20;;;23.20;52.50;;;;;;5033702;28;20122;-82
2024/03/24 17:09:24;;;;;;;6.95;2.05;;;23.20;52.60;;;;;;5034544;28;20057;-80
2024/03/24 17:11:50;;;;;;;6.07;2.20;;;23.10;52.70;;;;;;5032321;28;20055;-81
2024/03/24 17:14:18;;;;;;;8.23;2.22;;;23.10;52.70;;;;;;5035025;28;20045;-81
2024/03/24 17:16:46;;;;;;;9.43;2.17;;;23.10;52.70;;;;;;5023599;28;20064;-82
2024/03/24 17:19:16;;;;;;;9.85;2.15;;;23.10;52.20;;;;;;5017665;28;20096;-81
2024/03/24 17:21:46;;;;;;;8.98;2.83;;;23.10;51.10;;;;;;5027406;28;20053;-81
2024/03/24 17:24:14;;;;;;;9.15;3.28;;;23.10;51.30;;;;;;5024130;28;20053;-81
2024/03/24 17:26:41;;;;;;;16.23;3.63;;;23.10;52.00;;;;;;5021963;28;20046;-81
2024/03/24 17:29:08;;;;;;;8.43;2.53;;;23.10;52.40;;;;;;5042108;28;20045;-80
2024/03/24 17:31:36;;;;;;;17.52;4.40;;;23.10;52.10;;;;;;5036300;28;20060;-80
2024/03/24 17:34:03;;;;;;;17.17;5.07;;;23.10;52.40;;;;;;5032286;28;20049;-80
2024/03/24 17:36:29;;;;;;;13.55;4.53;;;23.20;52.90;;;;;;5038527;28;20488;-80
2024/03/24 17:38:57;;;;;;;19.58;5.35;;;23.10;53.10;;;;;;5015988;28;20055;-81
2024/03/24 17:41:24;;;;;;;14.63;4.57;;;23.10;52.80;;;;;;5022855;28;20049;-81
2024/03/24 17:43:51;;;;;;;14.40;4.43;;;23.10;52.80;;;;;;5022564;28;20439;-82
2024/03/24 17:46:17;;;;;;;17.13;4.68;;;23.20;52.90;;;;;;5017323;28;20049;-83
2024/03/24 17:48:43;;;;;;;11.55;3.78;;;23.20;53.10;;;;;;5024443;28;20079;-81
2024/03/24 17:51:09;;;;;;;13.88;3.90;;;23.20;52.30;;;;;;5017854;28;20060;-83
2024/03/24 17:53:35;;;;;;;10.93;3.70;;;23.20;52.20;;;;;;5040979;28;20049;-83
2024/03/24 17:56:01;;;;;;;12.90;4.28;;;23.20;49.00;;;;;;5043806;28;20048;-82
2024/03/24 17:58:28;;;;;;;12.60;3.72;;;23.10;48.60;;;;;;5015513;28;20062;-82
2024/03/24 18:00:55;;;;;;;17.83;3.42;;;23.10;49.70;;;;;;5023501;28;20098;-82
2024/03/24 18:03:22;;;;;;;11.80;3.15;;;23.10;50.80;;;;;;5019976;28;20065;-83
2024/03/24 18:05:49;;;;;;;10.10;3.33;;;23.10;51.10;;;;;;5035708;28;20057;-82
2024/03/24 18:10:59;;;;;;;4.85;1.58;;;23.20;51.60;;;;;;5038829;28;20053;-82
2024/03/24 18:13:25;;;;;;;3.90;1.30;;;22.80;40.10;;;;;;5026579;28;20052;-81
2024/03/24 18:15:53;;;;;;;6.03;1.70;;;22.10;37.60;;;;;;5021682;28;20053;-82
2024/03/24 18:18:25;;;;;;;3.95;1.45;;;21.50;39.40;;;;;;5020195;28;20108;-82
2024/03/24 18:20:52;;;;;;;5.50;1.60;;;21.40;41.70;;;;;;5022596;28;20054;-81
2024/03/24 18:23:18;;;;;;;3.55;1.40;;;21.40;44.10;;;;;;5022240;28;20057;-81
2024/03/24 18:25:45;;;;;;;2.72;1.58;;;21.60;45.80;;;;;;5029608;28;20057;-81
2024/03/24 18:28:18;;;;;;;2.13;1.50;;;21.70;46.00;;;;;;5022986;28;20045;-82
2024/03/24 18:30:46;;;;;;;3.03;1.42;;;21.80;46.40;;;;;;5028651;28;20063;-81
2024/03/24 18:33:13;;;;;;;3.00;1.25;;;21.90;46.70;;;;;;5030909;28;20063;-82
2024/03/24 18:35:39;;;;;;;6.15;1.25;;;22.00;46.90;;;;;;5030581;28;20045;-82
2024/03/24 18:38:07;;;;;;;3.40;1.20;;;22.10;47.20;;;;;;5027084;28;20060;-82
2024/03/24 18:40:34;;;;;;;5.20;1.58;;;22.20;47.40;;;;;;5022079;28;20433;-82
2024/03/24 18:43:01;;;;;;;2.67;1.35;;;22.20;47.50;;;;;;5023293;28;20064;-82
2024/03/24 18:45:27;;;;;;;4.57;1.50;;;22.30;47.60;;;;;;5028265;28;20515;-82
2024/03/24 18:47:53;;;;;;;2.75;1.27;;;22.40;47.80;;;;;;5029324;28;20065;-82
2024/03/24 18:50:19;;;;;;;3.85;1.10;;;22.40;47.90;;;;;;5047786;28;20107;-82
2024/03/24 18:52:45;;;;;;;2.47;1.30;;;22.50;48.00;;;;;;5032644;28;20048;-82
2024/03/24 18:55:11;;;;;;;2.55;1.10;;;22.50;48.00;;;;;;5031998;28;20076;-82
2024/03/24 18:57:37;;;;;;;2.78;1.13;;;22.50;48.20;;;;;;5032587;28;20045;-82
2024/03/24 19:00:03;;;;;;;3.10;1.30;;;22.50;48.20;;;;;;5031924;28;20061;-82
2024/03/24 19:02:29;;;;;;;1.83;1.23;;;22.50;48.20;;;;;;5064809;28;20052;-82
2024/03/24 19:04:55;;;;;;;2.13;1.08;;;22.60;48.30;;;;;;5025307;28;20061;-82
2024/03/24 19:07:21;;;;;;;1.35;0.90;;;22.60;48.50;;;;;;5034789;28;20407;-82
2024/03/24 19:09:48;;;;;;;3.85;1.10;;;22.60;48.50;;;;;;5041346;28;20045;-83
2024/03/24 19:12:14;;;;;;;5.95;0.93;;;22.70;48.80;;;;;;5024027;28;20049;-83
2024/03/24 19:14:40;;;;;;;3.28;1.30;;;22.70;48.90;;;;;;5017789;28;20045;-84
2024/03/24 19:17:06;;;;;;;4.32;1.30;;;22.80;48.70;;;;;;5050901;28;20049;-84
2024/03/24 19:19:32;;;;;;;2.15;1.13;;;22.80;48.70;;;;;;5020251;28;20446;-84
2024/03/24 19:22:01;;;;;;;1.75;1.00;;;22.80;48.70;;;;;;5023079;28;20053;-83
2024/03/24 19:24:27;;;;;;;6.28;1.08;;;22.80;48.80;;;;;;5023448;28;20057;-84
2024/03/24 19:26:53;;;;;;;6.13;1.17;;;22.90;48.90;;;;;;5025549;28;20053;-83
2024/03/24 19:29:19;;;;;;;2.17;1.20;;;22.90;48.90;;;;;;5040372;28;20057;-85
2024/03/24 19:31:45;;;;;;;2.40;1.33;;;22.90;48.90;;;;;;5033543;28;20123;-86
2024/03/24 19:34:11;;;;;;;1.42;1.20;;;23.00;49.00;;;;;;5023837;28;20064;-85
2024/03/24 19:36:37;;;;;;;3.53;0.88;;;23.00;48.90;;;;;;5038909;28;20054;-85
2024/03/24 19:39:04;;;;;;;2.67;1.30;;;23.00;48.90;;;;;;5029013;28;20064;-85
2024/03/24 19:41:31;;;;;;;2.45;0.95;;;23.00;49.00;;;;;;5016802;28;20378;-85
2024/03/24 19:43:57;;;;;;;1.90;1.20;;;23.00;49.00;;;;;;5057573;28;20057;-86
2024/03/24 19:46:25;;;;;;;2.40;1.10;;;23.10;49.20;;;;;;5016191;28;20413;-86
2024/03/24 19:48:51;;;;;;;1.95;1.20;;;23.10;49.20;;;;;;4997825;28;20104;-85
2024/03/24 19:51:18;;;;;;;2.08;1.40;;;23.10;49.20;;;;;;5007720;28;20057;-85
2024/03/24 19:53:44;;;;;;;2.38;0.90;;;23.10;49.20;;;;;;5032733;28;20049;-85
2024/03/24 19:56:10;;;;;;;3.85;1.05;;;23.10;49.20;;;;;;5043783;28;20099;-84
2024/03/24 19:58:36;;;;;;;2.90;1.25;;;23.10;49.20;;;;;;5022776;28;20049;-85
2024/03/24 20:01:02;;;;;;;6.15;1.00;;;23.10;49.20;;;;;;5017602;28;20057;-86
2024/03/24 20:03:28;;;;;;;3.75;0.90;;;23.10;49.20;;;;;;5021025;28;20056;-86
2024/03/24 20:05:54;;;;;;;2.53;1.00;;;23.10;49.10;;;;;;5029048;28;20049;-87
2024/03/24 20:08:20;;;;;;;1.55;0.90;;;23.20;49.20;;;;;;5017352;28;20049;-87
2024/03/24 20:10:46;;;;;;;2.85;0.90;;;23.20;49.20;;;;;;5028400;28;20053;-87
2024/03/24 20:13:12;;;;;;;1.33;0.98;;;23.20;49.20;;;;;;5006717;28;20056;-84
2024/03/24 20:15:39;;;;;;;4.13;1.23;;;23.20;49.30;;;;;;5030819;28;20044;-86
2024/03/24 20:18:06;;;;;;;5.50;1.20;;;23.20;49.30;;;;;;5027100;28;20498;-85
2024/03/24 20:20:32;;;;;;;2.47;1.00;;;23.30;49.40;;;;;;5044610;28;20053;-86
2024/03/24 20:22:59;;;;;;;1.52;0.80;;;23.20;49.30;;;;;;5033726;28;20064;-84
2024/03/24 20:25:26;;;;;;;1.58;1.00;;;23.20;49.40;;;;;;5019940;28;20370;-86
2024/03/24 20:27:52;;;;;;;1.75;0.80;;;23.20;49.40;;;;;;5020591;28;20064;-86
2024/03/24 20:30:19;;;;;;;1.75;0.70;;;23.20;49.40;;;;;;5032241;28;20049;-86
2024/03/24 20:32:45;;;;;;;2.90;1.10;;;23.20;49.40;;;;;;5029016;28;20048;-85
2024/03/24 20:35:13;;;;;;;1.65;0.98;;;23.20;49.40;;;;;;5026357;28;20534;-85
2024/03/24 20:37:39;;;;;;;1.42;0.85;;;23.20;49.40;;;;;;5043543;28;20046;-85
2024/03/24 20:40:09;;;;;;;2.22;0.85;;;23.20;49.50;;;;;;5044003;28;20045;-86
2024/03/24 20:42:37;;;;;;;3.72;0.85;;;23.20;49.40;;;;;;5048574;28;20053;-86
2024/03/24 20:45:05;;;;;;;1.35;0.80;;;23.20;49.50;;;;;;5044394;28;20522;-87
2024/03/24 20:47:32;;;;;;;1.20;0.85;;;23.20;49.40;;;;;;5033197;28;20118;-86
2024/03/24 20:50:01;;;;;;;0.85;0.60;;;23.20;49.50;;;;;;5052770;28;20061;-86
2024/03/24 20:52:27;;;;;;;1.33;0.80;;;23.20;49.50;;;;;;5028147;28;20053;-86
2024/03/24 20:54:53;;;;;;;1.20;0.70;;;23.20;49.50;;;;;;5023834;28;20049;-86
2024/03/24 20:57:20;;;;;;;1.88;1.05;;;23.20;49.50;;;;;;5013063;28;20058;-86
2024/03/24 20:59:46;;;;;;;1.33;0.80;;;23.20;49.60;;;;;;5012797;28;20056;-85
2024/03/24 21:02:14;;;;;;;1.05;0.60;;;23.20;49.60;;;;;;5012461;28;20057;-85
2024/03/24 21:04:41;;;;;;;2.22;0.82;;;23.20;49.60;;;;;;5019566;28;20069;-86
2024/03/24 21:07:07;;;;;;;1.48;0.85;;;23.20;50.20;;;;;;5036235;28;20415;-87
2024/03/24 21:09:36;;;;;;;3.70;0.80;;;23.20;49.60;;;;;;5069229;28;20186;-87
2024/03/24 21:12:02;;;;;;;1.73;0.90;;;23.20;49.70;;;;;;5022594;28;20049;-86
2024/03/24 21:14:31;;;;;;;1.05;0.60;;;23.20;49.60;;;;;;5027217;28;20045;-85
2024/03/24 21:16:57;;;;;;;3.20;0.73;;;23.20;49.60;;;;;;5014998;28;20052;-85
2024/03/24 21:19:22;;;;;;;1.42;0.98;;;23.20;49.70;;;;;;5027341;28;20058;-83
2024/03/24 21:21:50;;;;;;;3.78;0.95;;;23.20;49.70;;;;;;5010506;28;20186;-84
2024/03/24 21:24:27;;;;;;;2.05;0.95;;;23.20;49.70;;;;;;5037599;28;20096;-84
2024/03/24 21:26:54;;;;;;;3.03;1.00;;;23.10;49.60;;;;;;5034484;28;20060;-83
2024/03/24 21:29:21;;;;;;;2.92;0.70;;;23.10;49.70;;;;;;5026870;28;20053;-80
2024/03/24 21:31:47;;;;;;;1.20;0.60;;;23.20;50.00;;;;;;5041565;28;20057;-82
2024/03/24 21:34:15;;;;;;;3.13;0.70;;;23.20;50.30;;;;;;5035553;28;20491;-84
2024/03/24 21:36:51;;;;;;;4.30;1.00;;;23.20;50.10;;;;;;5016861;28;20053;-84
2024/03/24 21:42:07;;;;;;;1.67;0.80;;;23.20;50.10;;;;;;5050077;28;20048;-84
2024/03/24 21:44:37;;;;;;;3.75;0.80;;;23.20;50.40;;;;;;5015823;28;20496;-84
2024/03/24 21:47:07;;;;;;;2.38;0.80;;;23.20;50.40;;;;;;5035886;28;20056;-84
2024/03/24 21:49:40;;;;;;;0.73;0.50;;;23.20;50.40;;;;;;5030309;28;20076;-84
2024/03/24 21:52:09;;;;;;;1.23;0.77;;;23.20;50.40;;;;;;5017809;28;20053;-84
2024/03/24 21:54:37;;;;;;;1.73;0.65;;;23.20;50.40;;;;;;5024808;28;20049;-84
2024/03/24 21:57:03;;;;;;;1.50;0.70;;;23.20;50.40;;;;;;5015974;28;20526;-84
2024/03/24 21:59:29;;;;;;;2.88;0.70;;;23.20;50.40;;;;;;5016034;28;20049;-85
2024/03/24 22:01:55;;;;;;;1.73;0.60;;;23.20;50.40;;;;;;5017385;28;20377;-85
2024/03/24 22:04:23;;;;;;;1.00;0.70;;;23.20;50.40;;;;;;5041264;28;20506;-85
2024/03/24 22:06:53;;;;;;;0.82;0.60;;;23.20;50.40;;;;;;5013369;28;20103;-85
2024/03/24 22:09:20;;;;;;;2.10;0.80;;;23.20;50.40;;;;;;5035101;28;20102;-84
2024/03/24 22:11:46;;;;;;;1.67;0.70;;;23.10;50.30;;;;;;5027027;28;20053;-85
2024/03/24 22:14:12;;;;;;;1.13;0.65;;;23.20;50.30;;;;;;5020359;28;20463;-85
2024/03/24 22:16:40;;;;;;;2.25;0.80;;;23.20;50.30;;;;;;5034838;28;20045;-85
2024/03/24 22:19:09;;;;;;;3.00;0.65;;;23.10;50.30;;;;;;5051453;28;20052;-85
2024/03/24 22:21:35;;;;;;;3.55;0.60;;;23.10;50.20;;;;;;5040440;28;20415;-85
2024/03/24 22:24:04;;;;;;;0.95;0.60;;;23.10;50.20;;;;;;5051761;28;20395;-84
2024/03/24 22:26:30;;;;;;;1.15;0.60;;;23.10;50.20;;;;;;5035148;28;20079;-86
2024/03/24 22:28:56;;;;;;;3.63;0.77;;;23.10;50.20;;;;;;5015411;28;20066;-85
2024/03/24 22:31:24;;;;;;;2.88;0.80;;;23.10;50.10;;;;;;5031645;28;20050;-85
2024/03/24 22:33:50;;;;;;;1.40;0.50;;;23.10;50.20;;;;;;5015446;28;20053;-85
2024/03/24 22:36:18;;;;;;;1.30;0.57;;;23.10;50.10;;;;;;5015735;28;20403;-85
2024/03/24 22:38:43;;;;;;;4.15;0.80;;;23.10;50.10;;;;;;5015355;28;20045;-85
2024/03/24 22:41:09;;;;;;;1.58;0.80;;;23.10;50.10;;;;;;5014968;28;20541;-85
2024/03/24 22:43:35;;;;;;;0.98;0.65;;;23.10;50.10;;;;;;5029741;28;20068;-85